createdAt,value
2019-02-18T00:02:51.548Z,24.80
2019-02-18T00:06:58.546Z,24.83
2019-02-18T00:11:05.483Z,25.17
2019-02-18T00:15:12.400Z,24.43
2019-02-18T00:19:19.369Z,25.17
2019-02-18T00:23:26.398Z,24.37
2019-02-18T00:27:33.306Z,23.57
2019-02-18T00:31:40.142Z,23.17
2019-02-18T00:35:47.173Z,23.77
2019-02-18T00:39:54.262Z,24.67
2019-02-18T00:44:01.311Z,25.30
2019-02-18T00:48:08.404Z,24.60
2019-02-18T00:52:15.511Z,24.70
2019-02-18T00:56:24.536Z,24.83
2019-02-18T01:00:31.501Z,23.93
2019-02-18T01:04:39.757Z,26.37
2019-02-18T01:08:46.853Z,26.37
2019-02-18T01:12:53.912Z,26.00
2019-02-18T01:17:00.915Z,24.90
2019-02-18T01:21:08.191Z,25.53
2019-02-18T01:25:20.855Z,25.13
2019-02-18T01:29:27.875Z,23.90
2019-02-18T01:33:34.957Z,23.80
2019-02-18T01:37:45.726Z,25.10
2019-02-18T01:41:50.601Z,26.67
2019-02-18T01:45:57.590Z,24.23
2019-02-18T01:50:05.189Z,25.37
2019-02-18T01:54:12.023Z,25.77
2019-02-18T01:58:18.945Z,26.00
2019-02-18T02:02:25.872Z,25.00
2019-02-18T02:06:32.734Z,26.70
2019-02-18T02:10:39.549Z,26.13
2019-02-18T02:14:46.405Z,26.33
2019-02-18T02:18:53.197Z,26.63
2019-02-18T02:23:00.089Z,26.07
2019-02-18T02:27:06.926Z,25.63
2019-02-18T02:31:13.743Z,26.33
2019-02-18T02:35:20.619Z,26.13
2019-02-18T02:39:27.630Z,26.23
2019-02-18T02:43:34.554Z,26.80
2019-02-18T02:47:41.480Z,27.97
2019-02-18T02:51:48.457Z,27.77
2019-02-18T02:55:55.369Z,28.13
2019-02-18T03:00:02.332Z,26.93
2019-02-18T03:04:10.763Z,27.23
2019-02-18T03:08:20.695Z,27.57
2019-02-18T03:12:26.354Z,26.17
2019-02-18T03:16:33.233Z,26.47
2019-02-18T03:20:40.075Z,27.43
2019-02-18T03:25:33.190Z,26.40
2019-02-18T03:30:37.963Z,27.30
2019-02-18T03:34:47.052Z,26.97
2019-02-18T03:38:53.895Z,26.67
2019-02-18T03:43:02.787Z,27.07
2019-02-18T03:47:10.402Z,27.00
2019-02-18T03:51:17.242Z,27.70
2019-02-18T03:55:24.076Z,27.80
2019-02-18T03:59:31.026Z,27.17
2019-02-18T04:03:37.882Z,28.60
2019-02-18T04:07:44.815Z,28.60
2019-02-18T04:11:51.624Z,29.40
2019-02-18T04:15:58.516Z,29.23
2019-02-18T04:20:05.427Z,30.10
2019-02-18T04:24:12.255Z,28.73
2019-02-18T04:28:19.039Z,29.73
2019-02-18T04:32:25.881Z,31.23
2019-02-18T04:36:32.722Z,28.83
2019-02-18T04:40:39.523Z,31.63
2019-02-18T04:44:46.364Z,32.23
2019-02-18T04:48:53.175Z,32.23
2019-02-18T04:53:01.477Z,29.73
2019-02-18T04:57:08.283Z,29.30
2019-02-18T05:01:15.132Z,29.30
2019-02-18T05:05:21.953Z,29.70
2019-02-18T05:09:28.755Z,30.80
2019-02-18T05:13:35.645Z,29.30
2019-02-18T05:17:42.493Z,29.80
2019-02-18T05:21:49.522Z,28.53
2019-02-18T05:25:56.446Z,29.90
2019-02-18T05:30:03.326Z,30.43
2019-02-18T05:34:10.293Z,28.73
2019-02-18T05:38:17.146Z,29.83
2019-02-18T05:42:23.962Z,29.97
2019-02-18T05:46:31.390Z,29.97
2019-02-18T05:50:38.344Z,28.90
2019-02-18T05:54:45.243Z,28.20
2019-02-18T05:58:52.056Z,29.60
2019-02-18T06:02:58.927Z,28.33
2019-02-18T06:07:05.825Z,29.73
2019-02-18T06:11:12.768Z,31.03
2019-02-18T06:15:23.655Z,31.53
2019-02-18T06:19:30.771Z,31.17
2019-02-18T06:23:37.602Z,29.87
2019-02-18T06:27:44.467Z,30.03
2019-02-18T06:31:51.286Z,29.47
2019-02-18T06:35:58.239Z,29.13
2019-02-18T06:40:05.679Z,31.53
2019-02-18T06:44:12.565Z,33.37
2019-02-18T06:48:44.098Z,33.13
2019-02-18T06:52:50.978Z,32.87
2019-02-18T06:57:19.823Z,33.80
2019-02-18T07:01:44.183Z,33.00
2019-02-18T07:06:02.174Z,33.93
2019-02-18T07:10:20.965Z,36.03
2019-02-18T07:14:27.928Z,31.70
2019-02-18T07:18:34.846Z,31.63
2019-02-18T07:22:41.695Z,33.00
2019-02-18T07:26:48.637Z,33.00
2019-02-18T07:31:12.379Z,33.63
2019-02-18T07:35:16.221Z,30.83
2019-02-18T07:39:23.177Z,32.87
2019-02-18T07:43:30.077Z,32.40
2019-02-18T07:47:37.063Z,34.40
2019-02-18T07:51:44.098Z,33.80
2019-02-18T07:55:51.042Z,34.83
2019-02-18T07:59:58.029Z,33.37
2019-02-18T08:04:04.959Z,30.97
2019-02-18T08:08:11.776Z,32.97
2019-02-18T08:12:18.638Z,30.77
2019-02-18T08:16:25.574Z,29.27
2019-02-18T08:20:32.588Z,28.43
2019-02-18T08:24:39.494Z,30.20
2019-02-18T08:28:46.420Z,29.70
2019-02-18T08:32:53.421Z,27.63
2019-02-18T08:37:00.385Z,26.13
2019-02-18T08:41:07.339Z,27.00
2019-02-18T08:45:14.405Z,26.97
2019-02-18T08:49:21.289Z,25.60
2019-02-18T08:53:28.277Z,26.53
2019-02-18T08:57:36.088Z,26.60
2019-02-18T09:01:42.971Z,25.97
2019-02-18T09:05:51.126Z,25.20
2019-02-18T09:09:57.993Z,26.43
2019-02-18T09:14:04.824Z,25.57
2019-02-18T09:18:11.688Z,29.13
2019-02-18T09:22:52.856Z,32.93
2019-02-18T09:26:59.705Z,31.73
2019-02-18T09:31:06.557Z,28.37
2019-02-18T09:35:13.761Z,26.63
2019-02-18T09:39:30.798Z,25.93
2019-02-18T09:43:31.419Z,25.70
2019-02-18T09:47:38.386Z,26.23
2019-02-18T09:51:45.273Z,23.80
2019-02-18T09:55:52.058Z,20.57
2019-02-18T09:59:58.896Z,21.00
2019-02-18T10:04:05.764Z,21.10
2019-02-18T10:08:12.622Z,20.53
2019-02-18T10:12:19.663Z,18.70
2019-02-18T10:16:26.574Z,19.30
2019-02-18T10:20:33.455Z,21.17
2019-02-18T10:24:50.637Z,17.97
2019-02-18T10:28:52.867Z,18.27
2019-02-18T10:33:00.434Z,17.63
2019-02-18T10:37:08.910Z,18.80
2019-02-18T10:41:15.844Z,18.47
2019-02-18T10:45:22.744Z,18.13
2019-02-18T10:49:29.805Z,18.10
2019-02-18T10:53:36.662Z,18.20
2019-02-18T10:57:43.886Z,17.87
2019-02-18T11:01:50.858Z,17.30
2019-02-18T11:05:58.153Z,16.50
2019-02-18T11:10:06.524Z,15.23
2019-02-18T11:14:13.471Z,15.53
2019-02-18T11:18:20.473Z,13.77
2019-02-18T11:22:27.614Z,21.10
2019-02-18T11:26:34.697Z,21.67
2019-02-18T11:30:41.661Z,14.23
2019-02-18T11:34:48.621Z,14.83
2019-02-18T11:38:55.505Z,14.90
2019-02-18T11:43:02.462Z,14.43
2019-02-18T11:47:09.340Z,13.40
2019-02-18T11:51:16.288Z,13.53
2019-02-18T11:55:23.105Z,12.97
2019-02-18T11:59:30.047Z,13.87
2019-02-18T12:03:36.999Z,12.93
2019-02-18T12:07:44.375Z,11.50
2019-02-18T12:11:51.284Z,11.73
2019-02-18T12:15:58.137Z,11.00
2019-02-18T12:20:06.386Z,10.40
2019-02-18T12:24:13.335Z,9.67
2019-02-18T12:28:20.227Z,10.07
2019-02-18T12:32:27.097Z,10.87
2019-02-18T12:36:33.976Z,10.37
2019-02-18T12:40:40.836Z,9.90
2019-02-18T12:44:47.831Z,10.07
2019-02-18T12:48:54.726Z,9.43
2019-02-18T12:53:01.596Z,9.97
2019-02-18T12:57:09.006Z,10.63
2019-02-18T13:01:16.038Z,10.70
2019-02-18T13:05:22.968Z,10.30
2019-02-18T13:09:29.893Z,10.13
2019-02-18T13:13:36.758Z,9.10
2019-02-18T13:17:44.209Z,9.80
2019-02-18T13:21:51.246Z,9.73
2019-02-18T13:26:02.285Z,10.23
2019-02-18T13:30:15.397Z,10.47
2019-02-18T13:34:22.414Z,10.10
2019-02-18T13:38:29.352Z,9.67
2019-02-18T13:42:36.291Z,9.80
2019-02-18T13:46:43.582Z,9.53
2019-02-18T13:50:51.909Z,9.93
2019-02-18T13:55:10.661Z,9.73
2019-02-18T13:59:18.235Z,8.73
2019-02-18T14:03:25.196Z,8.83
2019-02-18T14:07:33.283Z,8.03
2019-02-18T14:11:40.263Z,9.90
2019-02-18T14:15:47.151Z,7.80
2019-02-18T14:19:54.086Z,7.33
2019-02-18T14:24:00.926Z,8.07
2019-02-18T14:28:07.799Z,7.10
2019-02-18T14:32:14.789Z,7.80
2019-02-18T14:36:21.723Z,8.10
2019-02-18T14:40:28.947Z,8.03
2019-02-18T14:44:36.928Z,7.60
2019-02-18T14:48:44.090Z,7.53
2019-02-18T14:52:51.899Z,7.30
2019-02-18T14:56:58.784Z,7.97
2019-02-18T15:01:07.958Z,8.23
2019-02-18T15:05:15.223Z,8.00
2019-02-18T15:09:22.483Z,7.50
2019-02-18T15:13:29.512Z,11.57
2019-02-18T15:17:36.706Z,8.60
2019-02-18T15:21:43.538Z,8.80
2019-02-18T15:25:50.395Z,8.40
2019-02-18T15:29:57.325Z,8.80
2019-02-18T15:34:04.291Z,9.47
2019-02-18T15:38:11.150Z,9.00
2019-02-18T15:42:18.190Z,8.67
2019-02-18T15:46:25.622Z,8.83
2019-02-18T15:50:32.699Z,9.30
2019-02-18T15:54:39.663Z,9.17
2019-02-18T15:58:46.624Z,9.23
2019-02-18T16:02:53.507Z,10.17
2019-02-18T16:07:00.547Z,9.47
2019-02-18T16:11:07.388Z,9.77
2019-02-18T16:15:14.770Z,10.03
2019-02-18T16:19:22.022Z,10.23
2019-02-18T16:23:37.659Z,34.43
2019-02-18T16:27:44.918Z,9.57
2019-02-18T16:31:52.965Z,16.17
2019-02-18T16:36:00.128Z,10.47
2019-02-18T16:40:10.239Z,11.30
2019-02-18T16:44:17.504Z,10.37
2019-02-18T16:48:24.632Z,12.03
2019-02-18T16:52:31.594Z,11.53
2019-02-18T16:56:39.343Z,11.47
2019-02-18T17:00:46.624Z,11.23
2019-02-18T17:04:53.928Z,12.73
2019-02-18T17:09:00.891Z,11.73
2019-02-18T17:13:09.606Z,11.33
2019-02-18T17:17:16.721Z,10.23
2019-02-18T17:21:23.881Z,11.30
2019-02-18T17:25:30.858Z,42.20
2019-02-18T17:29:37.830Z,11.03
2019-02-18T17:33:45.009Z,10.70
2019-02-18T17:37:52.000Z,11.90
2019-02-18T17:41:59.039Z,11.07
2019-02-18T17:46:06.201Z,12.23
2019-02-18T17:50:15.216Z,10.10
2019-02-18T17:54:23.305Z,10.13
2019-02-18T17:58:30.253Z,12.23
2019-02-18T18:02:38.364Z,10.00
2019-02-18T18:06:45.223Z,9.70
2019-02-18T18:10:52.339Z,10.93
2019-02-18T18:14:59.288Z,9.53
2019-02-18T18:19:09.277Z,9.97
2019-02-18T18:23:14.945Z,26.37
2019-02-18T18:27:22.040Z,11.63
2019-02-18T18:31:31.673Z,12.37
2019-02-18T18:35:38.710Z,12.83
2019-02-18T18:39:46.115Z,13.47
2019-02-18T18:43:53.002Z,15.50
2019-02-18T18:48:00.066Z,53.53
2019-02-18T18:52:07.809Z,14.50
2019-02-18T18:56:15.515Z,13.40
2019-02-18T19:00:26.289Z,14.30
2019-02-18T19:04:33.311Z,13.87
2019-02-18T19:08:40.359Z,13.20
2019-02-18T19:12:47.289Z,13.87
2019-02-18T19:16:56.532Z,13.63
2019-02-18T19:21:07.858Z,15.03
2019-02-18T19:25:17.790Z,13.50
2019-02-18T19:29:26.690Z,13.23
2019-02-18T19:33:33.750Z,15.33
2019-02-18T19:37:40.870Z,20.80
2019-02-18T19:41:47.853Z,19.50
2019-02-18T19:45:55.296Z,18.33
2019-02-18T19:50:02.427Z,14.03
2019-02-18T19:54:10.449Z,14.40
2019-02-18T19:58:17.437Z,15.83
2019-02-18T20:02:24.304Z,15.40
2019-02-18T20:06:31.649Z,15.23
2019-02-18T20:10:38.897Z,15.57
2019-02-18T20:14:45.782Z,16.17
2019-02-18T20:18:52.672Z,13.23
2019-02-18T20:22:59.818Z,14.97
2019-02-18T20:27:07.079Z,13.27
2019-02-18T20:31:14.196Z,12.03
2019-02-18T20:35:21.183Z,13.40
2019-02-18T20:39:28.280Z,13.27
2019-02-18T20:43:35.632Z,17.23
2019-02-18T20:47:43.101Z,14.93
2019-02-18T20:51:50.345Z,14.23
2019-02-18T20:55:57.601Z,13.60
2019-02-18T21:00:08.409Z,13.83
2019-02-18T21:04:15.310Z,14.30
2019-02-18T21:08:23.774Z,42.70
2019-02-18T21:12:30.896Z,13.17
2019-02-18T21:16:37.831Z,12.17
2019-02-18T21:20:44.748Z,12.10
2019-02-18T21:24:51.739Z,12.97
2019-02-18T21:28:59.081Z,11.30
2019-02-18T21:33:06.005Z,11.23
2019-02-18T21:37:13.067Z,10.53
2019-02-18T21:41:19.958Z,10.37
2019-02-18T21:45:26.865Z,10.27
2019-02-18T21:49:35.319Z,9.90
2019-02-18T21:53:42.373Z,9.23
2019-02-18T21:57:50.312Z,9.63
2019-02-18T22:01:57.302Z,9.57
2019-02-18T22:06:04.519Z,8.93
2019-02-18T22:10:11.435Z,8.37
2019-02-18T22:14:19.256Z,8.27
2019-02-18T22:18:26.506Z,7.57
2019-02-18T22:22:33.418Z,7.47
2019-02-18T22:26:40.262Z,7.30
2019-02-18T22:30:47.184Z,7.07
2019-02-18T22:34:54.115Z,7.80
2019-02-18T22:39:00.998Z,7.57
2019-02-18T22:43:09.498Z,7.27
2019-02-18T22:47:16.869Z,8.13
2019-02-18T22:51:23.828Z,16.80
2019-02-18T22:55:30.720Z,7.73
2019-02-18T22:59:37.585Z,7.97
2019-02-18T23:03:44.416Z,8.07
2019-02-18T23:07:51.380Z,8.13
2019-02-18T23:11:58.271Z,8.23
2019-02-18T23:16:05.556Z,21.20
2019-02-18T23:20:12.926Z,9.93
2019-02-18T23:24:19.996Z,11.53
2019-02-18T23:28:26.939Z,9.83
2019-02-18T23:32:33.844Z,10.43
2019-02-18T23:36:40.680Z,11.03
2019-02-18T23:40:47.495Z,10.17
2019-02-18T23:44:59.237Z,9.87
2019-02-18T23:49:03.001Z,11.57
2019-02-18T23:53:09.873Z,11.47
2019-02-18T23:57:16.873Z,12.03
